createdAt,value
2023-12-29T00:00:37.835Z,68
2023-12-29T00:03:08.142Z,68
2023-12-29T00:05:36.840Z,68
2023-12-29T00:08:07.031Z,69
2023-12-29T00:10:37.088Z,69
2023-12-29T00:13:07.232Z,70
2023-12-29T00:15:38.270Z,70
2023-12-29T00:18:09.365Z,70
2023-12-29T00:20:41.529Z,70
2023-12-29T00:23:10.109Z,70
2023-12-29T00:25:40.684Z,70
2023-12-29T00:28:10.744Z,70
2023-12-29T00:30:47.318Z,70
2023-12-29T00:33:11.796Z,70
2023-12-29T00:35:41.931Z,70
2023-12-29T00:38:12.197Z,70
2023-12-29T00:40:42.356Z,70
2023-12-29T00:43:12.698Z,70
2023-12-29T00:45:42.844Z,70
2023-12-29T00:48:13.172Z,70
2023-12-29T00:50:43.139Z,70
2023-12-29T00:53:13.440Z,69
2023-12-29T00:55:43.740Z,69
2023-12-29T00:58:13.951Z,69
2023-12-29T01:00:44.388Z,69
2023-12-29T01:03:14.624Z,69
2023-12-29T01:05:45.693Z,70
2023-12-29T01:08:16.468Z,70
2023-12-29T01:10:46.961Z,70
2023-12-29T01:13:17.109Z,70
2023-12-29T01:15:47.570Z,70
2023-12-29T01:18:18.158Z,70
2023-12-29T01:20:49.081Z,70
2023-12-29T01:23:19.439Z,70
2023-12-29T01:25:49.887Z,70
2023-12-29T01:28:20.801Z,70
2023-12-29T01:30:50.909Z,70
2023-12-29T01:33:21.235Z,70
2023-12-29T01:35:51.388Z,70
2023-12-29T01:38:21.573Z,70
2023-12-29T01:40:51.909Z,70
2023-12-29T01:43:22.124Z,69
2023-12-29T01:45:55.617Z,70
2023-12-29T01:48:22.997Z,71
2023-12-29T01:50:53.550Z,72
2023-12-29T01:53:30.807Z,72
2023-12-29T01:55:54.928Z,72
2023-12-29T01:58:26.118Z,72
2023-12-29T02:00:56.957Z,72
2023-12-29T02:03:26.986Z,72
2023-12-29T02:05:57.545Z,72
2023-12-29T02:08:27.777Z,72
2023-12-29T02:10:58.232Z,72
2023-12-29T02:13:28.909Z,72
2023-12-29T02:15:59.740Z,71
2023-12-29T02:18:30.336Z,71
2023-12-29T02:21:01.551Z,71
2023-12-29T02:23:32.136Z,71
2023-12-29T02:26:02.643Z,71
2023-12-29T02:28:33.234Z,72
2023-12-29T02:31:04.008Z,71
2023-12-29T02:33:34.486Z,71
2023-12-29T02:36:04.747Z,71
2023-12-29T02:38:35.437Z,70
2023-12-29T02:41:06.463Z,70
2023-12-29T02:43:41.081Z,70
2023-12-29T02:46:11.529Z,70
2023-12-29T02:48:42.013Z,70
2023-12-29T02:51:12.328Z,71
2023-12-29T02:53:42.667Z,71
2023-12-29T02:56:12.960Z,71
2023-12-29T02:58:43.852Z,72
2023-12-29T03:01:14.122Z,71
2023-12-29T03:03:44.776Z,72
2023-12-29T03:06:15.205Z,72
2023-12-29T03:08:46.231Z,72
2023-12-29T03:11:16.698Z,72
2023-12-29T03:13:46.809Z,71
2023-12-29T03:16:17.304Z,71
2023-12-29T03:18:47.726Z,71
2023-12-29T03:21:18.127Z,71
2023-12-29T03:23:48.730Z,71
2023-12-29T03:26:19.131Z,72
2023-12-29T03:28:50.501Z,72
2023-12-29T03:31:21.325Z,72
2023-12-29T03:33:51.392Z,72
2023-12-29T03:36:22.136Z,73
2023-12-29T03:38:52.531Z,73
2023-12-29T03:41:23.114Z,73
2023-12-29T03:43:53.748Z,73
2023-12-29T03:46:24.127Z,72
2023-12-29T03:48:54.469Z,71
2023-12-29T03:51:24.731Z,71
2023-12-29T03:53:55.017Z,71
2023-12-29T03:56:25.492Z,71
2023-12-29T03:58:56.716Z,71
2023-12-29T04:01:27.920Z,72
2023-12-29T04:03:57.940Z,72
2023-12-29T04:06:28.140Z,72
2023-12-29T04:08:58.576Z,72
2023-12-29T04:11:29.083Z,72
2023-12-29T04:13:59.379Z,72
2023-12-29T04:16:29.587Z,73
2023-12-29T04:18:59.944Z,73
2023-12-29T04:21:30.297Z,73
2023-12-29T04:24:00.687Z,72
2023-12-29T04:26:31.285Z,72
2023-12-29T04:29:01.904Z,71
2023-12-29T04:31:32.155Z,71
2023-12-29T04:34:02.546Z,71
2023-12-29T04:36:32.597Z,71
2023-12-29T04:39:02.826Z,71
2023-12-29T04:41:32.972Z,72
2023-12-29T04:44:03.771Z,72
2023-12-29T04:46:34.292Z,72
2023-12-29T04:49:04.875Z,72
2023-12-29T04:51:35.309Z,72
2023-12-29T04:54:05.581Z,72
2023-12-29T04:56:35.891Z,73
2023-12-29T04:59:07.976Z,73
2023-12-29T05:01:38.195Z,73
2023-12-29T05:04:08.613Z,72
2023-12-29T05:06:38.774Z,72
2023-12-29T05:09:08.961Z,72
2023-12-29T05:11:39.777Z,72
2023-12-29T05:14:10.708Z,72
2023-12-29T05:16:41.210Z,71
2023-12-29T05:19:11.993Z,71
2023-12-29T05:21:42.112Z,71
2023-12-29T05:24:13.068Z,71
2023-12-29T05:26:43.337Z,71
2023-12-29T05:29:15.146Z,71
2023-12-29T05:31:46.026Z,71
2023-12-29T05:34:16.345Z,71
2023-12-29T05:36:48.959Z,72
2023-12-29T05:39:17.587Z,72
2023-12-29T05:41:47.857Z,72
2023-12-29T05:44:18.126Z,71
2023-12-29T05:46:48.713Z,71
2023-12-29T05:49:19.384Z,70
2023-12-29T05:51:49.486Z,70
2023-12-29T05:54:20.372Z,71
2023-12-29T05:56:50.839Z,71
2023-12-29T05:59:21.331Z,72
2023-12-29T06:01:51.423Z,71
2023-12-29T06:04:21.828Z,71
2023-12-29T06:06:51.758Z,71
2023-12-29T06:09:21.774Z,72
2023-12-29T06:11:51.996Z,72
2023-12-29T06:14:22.254Z,72
2023-12-29T06:16:52.527Z,72
2023-12-29T06:19:22.757Z,72
2023-12-29T06:21:52.968Z,72
2023-12-29T06:24:23.639Z,71
2023-12-29T06:26:54.061Z,71
2023-12-29T06:29:25.316Z,72
2023-12-29T06:31:55.393Z,72
2023-12-29T06:34:25.606Z,73
2023-12-29T06:36:56.667Z,73
2023-12-29T06:39:27.077Z,73
2023-12-29T06:41:57.241Z,73
2023-12-29T06:44:27.784Z,72
2023-12-29T06:46:58.065Z,73
2023-12-29T06:49:28.649Z,72
2023-12-29T06:51:58.808Z,72
2023-12-29T06:54:29.074Z,72
2023-12-29T06:56:59.205Z,72
2023-12-29T06:59:29.771Z,71
2023-12-29T07:01:59.956Z,71
2023-12-29T07:04:30.553Z,70
2023-12-29T07:07:00.945Z,70
2023-12-29T07:09:31.153Z,71
2023-12-29T07:12:01.251Z,72
2023-12-29T07:14:32.139Z,72
2023-12-29T07:17:02.272Z,71
2023-12-29T07:19:32.392Z,71
2023-12-29T07:22:02.715Z,71
2023-12-29T07:24:32.894Z,71
2023-12-29T07:27:03.192Z,70
2023-12-29T07:29:33.906Z,70
2023-12-29T07:32:03.952Z,70
2023-12-29T07:34:34.018Z,69
2023-12-29T07:37:04.630Z,69
2023-12-29T07:39:34.668Z,69
2023-12-29T07:42:06.092Z,69
2023-12-29T07:44:35.198Z,69
2023-12-29T07:47:05.538Z,69
2023-12-29T07:49:36.122Z,69
2023-12-29T07:52:06.347Z,68
2023-12-29T07:54:37.192Z,69
2023-12-29T07:57:08.311Z,69
2023-12-29T07:59:39.089Z,68
2023-12-29T08:02:09.105Z,68
2023-12-29T08:04:39.614Z,67
2023-12-29T08:07:10.039Z,67
2023-12-29T08:09:40.090Z,67
2023-12-29T08:12:10.298Z,68
2023-12-29T08:14:41.055Z,67
2023-12-29T08:17:11.281Z,67
2023-12-29T08:19:41.463Z,67
2023-12-29T08:22:11.662Z,66
2023-12-29T08:24:41.825Z,66
2023-12-29T08:27:11.927Z,66
2023-12-29T08:29:42.092Z,66
2023-12-29T08:32:12.900Z,66
2023-12-29T08:34:43.769Z,66
2023-12-29T08:37:13.962Z,67
2023-12-29T08:39:47.093Z,66
2023-12-29T08:42:18.408Z,66
2023-12-29T08:44:49.111Z,66
2023-12-29T08:47:19.573Z,66
2023-12-29T08:49:49.690Z,66
2023-12-29T08:52:19.775Z,66
2023-12-29T08:54:50.045Z,66
2023-12-29T08:57:20.275Z,66
2023-12-29T08:59:50.596Z,66
2023-12-29T09:02:20.831Z,66
2023-12-29T09:04:51.340Z,65
2023-12-29T09:07:21.374Z,66
2023-12-29T09:09:52.456Z,65
2023-12-29T09:12:22.769Z,66
2023-12-29T09:14:53.552Z,65
2023-12-29T09:17:23.584Z,65
2023-12-29T09:19:57.207Z,65
2023-12-29T09:22:23.930Z,65
2023-12-29T09:24:53.834Z,65
2023-12-29T09:27:24.575Z,65
2023-12-29T09:29:54.503Z,64
2023-12-29T09:32:24.755Z,64
2023-12-29T09:34:54.941Z,64
2023-12-29T09:37:25.538Z,64
2023-12-29T09:39:55.659Z,63
2023-12-29T09:42:25.536Z,62
2023-12-29T09:44:55.893Z,62
2023-12-29T09:47:25.786Z,62
2023-12-29T09:49:56.229Z,62
2023-12-29T09:52:26.165Z,61
2023-12-29T09:54:56.317Z,61
2023-12-29T09:57:26.545Z,61
2023-12-29T09:59:57.374Z,60
2023-12-29T10:02:27.757Z,60
2023-12-29T10:04:58.411Z,60
2023-12-29T10:07:28.824Z,60
2023-12-29T10:09:59.032Z,59
2023-12-29T10:12:29.692Z,59
2023-12-29T10:15:00.823Z,59
2023-12-29T10:17:32.039Z,58
2023-12-29T10:20:02.933Z,58
2023-12-29T10:22:33.325Z,58
2023-12-29T10:25:03.876Z,57
2023-12-29T10:27:34.162Z,56
2023-12-29T10:30:04.952Z,56
2023-12-29T10:32:35.270Z,57
2023-12-29T10:35:05.770Z,55
2023-12-29T10:37:36.666Z,55
2023-12-29T10:40:06.848Z,55
2023-12-29T10:42:37.294Z,55
2023-12-29T10:45:07.784Z,54
2023-12-29T10:47:38.164Z,54
2023-12-29T10:50:08.486Z,54
2023-12-29T10:52:38.850Z,54
2023-12-29T10:55:09.474Z,53
2023-12-29T10:57:39.882Z,54
2023-12-29T11:00:11.130Z,53
2023-12-29T11:02:41.486Z,53
2023-12-29T11:05:11.469Z,53
2023-12-29T11:07:41.806Z,52
2023-12-29T11:10:12.507Z,52
2023-12-29T11:12:43.187Z,53
2023-12-29T11:15:13.946Z,52
2023-12-29T11:17:44.128Z,52
2023-12-29T11:20:14.712Z,52
2023-12-29T11:22:47.782Z,52
2023-12-29T11:25:18.822Z,52
2023-12-29T11:27:49.388Z,52
2023-12-29T11:30:19.872Z,52
2023-12-29T11:32:50.430Z,51
2023-12-29T11:35:20.664Z,52
2023-12-29T11:37:50.905Z,51
2023-12-29T11:40:21.544Z,51
2023-12-29T11:42:52.386Z,51
2023-12-29T11:45:23.347Z,50
2023-12-29T11:47:54.277Z,50
2023-12-29T11:50:24.800Z,51
2023-12-29T11:52:55.211Z,50
2023-12-29T11:55:26.094Z,49
2023-12-29T11:57:56.454Z,50
2023-12-29T12:00:27.205Z,50
2023-12-29T12:02:57.547Z,50
2023-12-29T12:05:27.860Z,49
2023-12-29T12:07:58.116Z,49
2023-12-29T12:10:29.743Z,49
2023-12-29T12:12:58.730Z,49
2023-12-29T12:15:29.562Z,50
2023-12-29T12:18:00.336Z,49
2023-12-29T12:20:31.087Z,50
2023-12-29T12:23:01.889Z,50
2023-12-29T12:25:31.985Z,50
2023-12-29T12:28:01.776Z,49
2023-12-29T12:30:32.085Z,50
2023-12-29T12:33:02.915Z,49
2023-12-29T12:35:32.820Z,49
2023-12-29T12:38:03.199Z,49
2023-12-29T12:40:33.329Z,49
2023-12-29T12:43:03.683Z,49
2023-12-29T12:45:33.689Z,49
2023-12-29T12:48:04.004Z,49
2023-12-29T12:50:33.831Z,49
2023-12-29T12:53:06.210Z,49
2023-12-29T12:55:36.312Z,49
2023-12-29T12:58:06.517Z,48
2023-12-29T13:00:37.084Z,49
2023-12-29T13:03:07.149Z,48
2023-12-29T13:05:37.701Z,48
2023-12-29T13:08:07.953Z,48
2023-12-29T13:10:38.083Z,48
2023-12-29T13:13:08.110Z,48
2023-12-29T13:15:38.693Z,48
2023-12-29T13:18:09.681Z,48
2023-12-29T13:20:40.630Z,49
2023-12-29T13:23:14.030Z,49
2023-12-29T13:25:44.266Z,49
2023-12-29T13:28:14.533Z,48
2023-12-29T13:30:45.642Z,48
2023-12-29T13:33:16.232Z,48
2023-12-29T13:35:51.721Z,48
2023-12-29T13:38:17.097Z,47
2023-12-29T13:40:47.174Z,48
2023-12-29T13:43:17.418Z,47
2023-12-29T13:45:47.919Z,48
2023-12-29T13:48:18.372Z,48
2023-12-29T13:50:48.182Z,49
2023-12-29T13:53:18.286Z,48
2023-12-29T13:55:48.594Z,48
2023-12-29T13:58:19.386Z,48
2023-12-29T14:00:48.833Z,48
2023-12-29T14:03:18.967Z,49
2023-12-29T14:05:49.430Z,49
2023-12-29T14:08:19.590Z,49
2023-12-29T14:10:49.872Z,49
2023-12-29T14:13:21.272Z,49
2023-12-29T14:15:51.358Z,49
2023-12-29T14:18:21.855Z,49
2023-12-29T14:20:51.792Z,49
2023-12-29T14:23:21.903Z,50
2023-12-29T14:25:52.211Z,50
2023-12-29T14:28:22.343Z,50
2023-12-29T14:30:52.336Z,50
2023-12-29T14:33:22.431Z,50
2023-12-29T14:35:52.440Z,50
2023-12-29T14:38:22.589Z,51
2023-12-29T14:40:52.676Z,51
2023-12-29T14:43:22.732Z,51
2023-12-29T14:45:53.028Z,51
2023-12-29T14:48:23.270Z,51
2023-12-29T14:50:53.131Z,51
2023-12-29T14:53:23.333Z,51
2023-12-29T14:55:53.467Z,52
2023-12-29T14:58:23.718Z,51
2023-12-29T15:00:53.856Z,52
2023-12-29T15:03:23.800Z,51
2023-12-29T15:05:54.126Z,52
2023-12-29T15:08:24.137Z,52
2023-12-29T15:10:54.107Z,52
2023-12-29T15:13:24.213Z,51
2023-12-29T15:15:54.361Z,52
2023-12-29T15:18:24.556Z,52
2023-12-29T15:20:54.621Z,52
2023-12-29T15:23:24.802Z,53
2023-12-29T15:25:54.844Z,53
2023-12-29T15:28:25.164Z,53
2023-12-29T15:30:55.650Z,53
2023-12-29T15:33:25.675Z,53
2023-12-29T15:35:55.866Z,52
2023-12-29T15:38:25.916Z,53
2023-12-29T15:40:55.860Z,53
2023-12-29T15:43:26.069Z,53
2023-12-29T15:45:56.323Z,53
2023-12-29T15:48:26.636Z,53
2023-12-29T15:50:56.652Z,53
2023-12-29T15:53:26.756Z,53
2023-12-29T15:55:56.889Z,53
2023-12-29T15:58:27.069Z,53
2023-12-29T16:00:57.504Z,54
2023-12-29T16:03:28.229Z,53
2023-12-29T16:05:58.430Z,54
2023-12-29T16:08:31.017Z,54
2023-12-29T16:10:59.255Z,54
2023-12-29T16:13:29.361Z,54
2023-12-29T16:15:59.586Z,54
2023-12-29T16:18:29.733Z,54
2023-12-29T16:21:00.021Z,54
2023-12-29T16:23:30.142Z,54
2023-12-29T16:26:00.254Z,54
2023-12-29T16:28:30.139Z,54
2023-12-29T16:31:00.267Z,54
2023-12-29T16:33:30.542Z,54
2023-12-29T16:36:00.581Z,54
2023-12-29T16:38:30.653Z,55
2023-12-29T16:41:01.194Z,55
2023-12-29T16:43:31.811Z,55
2023-12-29T16:46:02.144Z,55
2023-12-29T16:48:32.431Z,55
2023-12-29T16:51:03.205Z,55
2023-12-29T16:53:33.210Z,55
2023-12-29T16:56:03.250Z,55
2023-12-29T16:58:33.498Z,55
2023-12-29T17:01:03.411Z,55
2023-12-29T17:03:33.500Z,55
2023-12-29T17:06:03.600Z,55
2023-12-29T17:08:33.766Z,55
2023-12-29T17:11:03.925Z,55
2023-12-29T17:13:34.078Z,56
2023-12-29T17:16:04.851Z,56
2023-12-29T17:18:35.133Z,56
2023-12-29T17:21:05.064Z,56
2023-12-29T17:23:34.915Z,56
2023-12-29T17:26:05.130Z,56
2023-12-29T17:28:35.017Z,56
2023-12-29T17:31:05.399Z,56
2023-12-29T17:33:35.270Z,56
2023-12-29T17:36:05.373Z,56
2023-12-29T17:38:35.288Z,56
2023-12-29T17:41:05.866Z,56
2023-12-29T17:43:38.601Z,56
2023-12-29T17:46:09.211Z,56
2023-12-29T17:48:39.525Z,56
2023-12-29T17:51:09.366Z,56
2023-12-29T17:53:39.461Z,56
2023-12-29T17:56:09.443Z,56
2023-12-29T17:58:39.855Z,56
2023-12-29T18:01:10.030Z,57
2023-12-29T18:03:40.119Z,57
2023-12-29T18:06:08.919Z,57
2023-12-29T18:08:39.392Z,57
2023-12-29T18:11:09.793Z,57
2023-12-29T18:13:40.700Z,57
2023-12-29T18:16:10.812Z,57
2023-12-29T18:18:42.540Z,57
2023-12-29T18:21:10.788Z,57
2023-12-29T18:23:40.973Z,57
2023-12-29T18:26:10.938Z,57
2023-12-29T18:28:41.023Z,57
2023-12-29T18:31:11.214Z,57
2023-12-29T18:33:41.738Z,57
2023-12-29T18:36:11.836Z,57
2023-12-29T18:38:41.919Z,57
2023-12-29T18:41:11.858Z,58
2023-12-29T18:43:42.166Z,57
2023-12-29T18:46:12.074Z,57
2023-12-29T18:48:42.223Z,57
2023-12-29T18:51:12.174Z,58
2023-12-29T18:53:42.407Z,58
2023-12-29T18:56:12.576Z,57
2023-12-29T18:58:42.667Z,57
2023-12-29T19:01:12.833Z,57
2023-12-29T19:03:41.772Z,58
2023-12-29T19:06:12.325Z,58
2023-12-29T19:08:42.828Z,58
2023-12-29T19:11:12.799Z,58
2023-12-29T19:13:42.855Z,58
2023-12-29T19:16:13.816Z,58
2023-12-29T19:18:43.133Z,58
2023-12-29T19:21:13.610Z,58
2023-12-29T19:23:43.683Z,58
2023-12-29T19:26:13.513Z,58
2023-12-29T19:28:44.127Z,58
2023-12-29T19:31:14.299Z,58
2023-12-29T19:33:44.843Z,58
2023-12-29T19:36:14.838Z,58
2023-12-29T19:38:45.451Z,59
2023-12-29T19:41:15.378Z,59
2023-12-29T19:43:45.970Z,59
2023-12-29T19:46:16.539Z,59
2023-12-29T19:48:46.741Z,59
2023-12-29T19:51:17.408Z,59
2023-12-29T19:53:47.697Z,59
2023-12-29T19:56:17.648Z,59
2023-12-29T19:58:47.763Z,59
2023-12-29T20:01:18.030Z,59
2023-12-29T20:03:48.190Z,59
2023-12-29T20:06:18.040Z,59
2023-12-29T20:08:48.016Z,59
2023-12-29T20:11:18.722Z,59
2023-12-29T20:13:49.014Z,59
2023-12-29T20:16:19.052Z,59
2023-12-29T20:18:49.169Z,59
2023-12-29T20:21:19.658Z,59
2023-12-29T20:23:49.907Z,60
2023-12-29T20:26:20.223Z,59
2023-12-29T20:28:50.328Z,60
2023-12-29T20:31:20.672Z,60
2023-12-29T20:33:50.765Z,60
2023-12-29T20:36:20.868Z,59
2023-12-29T20:38:50.902Z,59
2023-12-29T20:41:20.921Z,59
2023-12-29T20:43:51.191Z,60
2023-12-29T20:46:21.591Z,59
2023-12-29T20:48:52.495Z,59
2023-12-29T20:51:22.345Z,59
2023-12-29T20:53:59.451Z,59
2023-12-29T20:56:30.082Z,59
2023-12-29T20:59:00.143Z,59
2023-12-29T21:01:30.774Z,59
2023-12-29T21:04:01.001Z,60
2023-12-29T21:06:31.007Z,60
2023-12-29T21:09:01.344Z,60
2023-12-29T21:11:31.249Z,60
2023-12-29T21:14:01.316Z,60
2023-12-29T21:16:32.236Z,60
2023-12-29T21:19:00.932Z,60
2023-12-29T21:21:31.221Z,60
2023-12-29T21:24:01.235Z,60
2023-12-29T21:26:31.251Z,61
2023-12-29T21:29:01.484Z,61
2023-12-29T21:31:32.329Z,61
2023-12-29T21:34:02.741Z,60
2023-12-29T21:36:32.717Z,60
2023-12-29T21:39:02.991Z,61
2023-12-29T21:41:33.147Z,61
2023-12-29T21:44:04.084Z,61
2023-12-29T21:46:34.318Z,61
2023-12-29T21:49:04.708Z,61
2023-12-29T21:51:34.873Z,61
2023-12-29T21:54:08.902Z,61
2023-12-29T21:56:39.218Z,61
2023-12-29T21:59:09.385Z,61
2023-12-29T22:01:40.356Z,61
2023-12-29T22:04:10.362Z,61
2023-12-29T22:06:40.246Z,61
2023-12-29T22:09:10.631Z,61
2023-12-29T22:11:40.802Z,61
2023-12-29T22:14:10.971Z,61
2023-12-29T22:16:41.056Z,61
2023-12-29T22:19:11.292Z,61
2023-12-29T22:21:41.477Z,62
2023-12-29T22:24:11.737Z,61
2023-12-29T22:26:41.793Z,61
2023-12-29T22:29:11.856Z,61
2023-12-29T22:31:42.121Z,61
2023-12-29T22:34:12.370Z,60
2023-12-29T22:36:45.547Z,60
2023-12-29T22:39:16.367Z,60
2023-12-29T22:41:46.334Z,60
2023-12-29T22:44:17.171Z,60
2023-12-29T22:46:50.497Z,60
2023-12-29T22:49:21.358Z,60
2023-12-29T22:51:51.693Z,60
2023-12-29T22:54:22.117Z,60
2023-12-29T22:56:52.314Z,60
2023-12-29T22:59:22.584Z,60
2023-12-29T23:01:53.030Z,60
2023-12-29T23:04:23.702Z,60
2023-12-29T23:06:53.705Z,60
2023-12-29T23:09:25.926Z,60
2023-12-29T23:11:54.279Z,60
2023-12-29T23:14:25.268Z,60
2023-12-29T23:16:55.433Z,60
2023-12-29T23:19:26.154Z,60
2023-12-29T23:21:56.125Z,60
2023-12-29T23:24:26.413Z,60
2023-12-29T23:26:56.819Z,60
2023-12-29T23:29:28.225Z,60
2023-12-29T23:31:58.492Z,60
2023-12-29T23:34:29.248Z,60
2023-12-29T23:36:59.559Z,60
2023-12-29T23:39:30.350Z,60
2023-12-29T23:42:00.989Z,60
2023-12-29T23:44:31.657Z,60
2023-12-29T23:47:02.133Z,60
2023-12-29T23:49:33.062Z,60
2023-12-29T23:52:03.387Z,60
2023-12-29T23:54:34.093Z,61
2023-12-29T23:57:04.640Z,60
2023-12-29T23:59:34.801Z,61
